sensor_id;sensor_type;location;lat;lon;timestamp;pressure;altitude;pressure_sealevel;temperature;humidity
80620;BME280;69979;53.682;-2.690;2023-07-02T00:01:08;100492.50;;;11.79;49.73
80620;BME280;69979;53.682;-2.690;2023-07-02T00:03:33;100494.00;;;11.52;50.79
80620;BME280;69979;53.682;-2.690;2023-07-02T00:05:59;100490.88;;;11.51;50.71
80620;BME280;69979;53.682;-2.690;2023-07-02T00:08:24;100498.21;;;12.19;48.63
80620;BME280;69979;53.682;-2.690;2023-07-02T00:10:50;100495.09;;;11.54;49.87
80620;BME280;69979;53.682;-2.690;2023-07-02T00:13:15;100491.35;;;11.58;50.34
80620;BME280;69979;53.682;-2.690;2023-07-02T00:15:40;100489.87;;;11.08;51.76
80620;BME280;69979;53.682;-2.690;2023-07-02T00:18:06;100492.72;;;10.74;52.65
80620;BME280;69979;53.682;-2.690;2023-07-02T00:20:32;100483.96;;;10.40;54.43
80620;BME280;69979;53.682;-2.690;2023-07-02T00:22:57;100478.44;;;10.90;52.48
80620;BME280;69979;53.682;-2.690;2023-07-02T00:25:23;100482.50;;;11.14;52.31
80620;BME280;69979;53.682;-2.690;2023-07-02T00:27:49;100482.30;;;10.31;54.22
80620;BME280;69979;53.682;-2.690;2023-07-02T00:30:14;100482.27;;;11.07;52.47
80620;BME280;69979;53.682;-2.690;2023-07-02T00:32:39;100488.35;;;10.07;54.35
80620;BME280;69979;53.682;-2.690;2023-07-02T00:35:05;100483.71;;;10.89;53.59
80620;BME280;69979;53.682;-2.690;2023-07-02T00:37:30;100476.55;;;11.53;51.53
80620;BME280;69979;53.682;-2.690;2023-07-02T00:39:55;100475.24;;;10.66;54.35
80620;BME280;69979;53.682;-2.690;2023-07-02T00:42:20;100478.47;;;10.67;53.94
80620;BME280;69979;53.682;-2.690;2023-07-02T00:44:46;100474.99;;;9.76;57.02
80620;BME280;69979;53.682;-2.690;2023-07-02T00:47:13;100471.43;;;10.47;55.17
80620;BME280;69979;53.682;-2.690;2023-07-02T00:49:37;100470.00;;;10.45;55.21
80620;BME280;69979;53.682;-2.690;2023-07-02T00:52:03;100479.75;;;10.66;55.94
80620;BME280;69979;53.682;-2.690;2023-07-02T00:54:28;100470.80;;;10.21;57.95
80620;BME280;69979;53.682;-2.690;2023-07-02T00:56:53;100474.57;;;10.16;56.70
80620;BME280;69979;53.682;-2.690;2023-07-02T00:59:19;100474.70;;;10.09;56.42
80620;BME280;69979;53.682;-2.690;2023-07-02T01:01:44;100470.28;;;9.99;58.00
80620;BME280;69979;53.682;-2.690;2023-07-02T01:04:09;100473.58;;;10.22;57.52
80620;BME280;69979;53.682;-2.690;2023-07-02T01:06:36;100472.35;;;9.85;57.65
80620;BME280;69979;53.682;-2.690;2023-07-02T01:09:02;100467.87;;;10.16;58.34
80620;BME280;69979;53.682;-2.690;2023-07-02T01:11:28;100472.93;;;10.18;57.79
80620;BME280;69979;53.682;-2.690;2023-07-02T01:13:53;100474.51;;;9.88;57.92
80620;BME280;69979;53.682;-2.690;2023-07-02T01:16:17;100481.05;;;9.82;57.85
80620;BME280;69979;53.682;-2.690;2023-07-02T01:18:42;100472.32;;;10.81;57.11
80620;BME280;69979;53.682;-2.690;2023-07-02T01:21:07;100473.25;;;10.09;58.19
80620;BME280;69979;53.682;-2.690;2023-07-02T01:23:33;100484.24;;;10.16;57.67
80620;BME280;69979;53.682;-2.690;2023-07-02T01:25:58;100482.61;;;10.38;56.80
80620;BME280;69979;53.682;-2.690;2023-07-02T01:28:24;100482.18;;;10.19;57.04
80620;BME280;69979;53.682;-2.690;2023-07-02T01:30:49;100482.64;;;10.14;57.59
80620;BME280;69979;53.682;-2.690;2023-07-02T01:33:15;100488.03;;;9.88;57.91
80620;BME280;69979;53.682;-2.690;2023-07-02T01:35:40;100489.22;;;9.88;57.31
80620;BME280;69979;53.682;-2.690;2023-07-02T01:38:05;100488.20;;;9.94;58.21
80620;BME280;69979;53.682;-2.690;2023-07-02T01:40:31;100496.37;;;9.50;59.30
80620;BME280;69979;53.682;-2.690;2023-07-02T01:42:56;100495.69;;;9.44;58.95
80620;BME280;69979;53.682;-2.690;2023-07-02T01:45:22;100498.64;;;10.09;56.33
80620;BME280;69979;53.682;-2.690;2023-07-02T01:47:47;100509.34;;;10.41;54.17
80620;BME280;69979;53.682;-2.690;2023-07-02T01:50:13;100497.09;;;10.66;54.24
80620;BME280;69979;53.682;-2.690;2023-07-02T01:52:38;100497.78;;;11.43;52.04
80620;BME280;69979;53.682;-2.690;2023-07-02T01:55:04;100516.88;;;10.22;54.78
80620;BME280;69979;53.682;-2.690;2023-07-02T01:57:29;100506.66;;;10.64;52.98
80620;BME280;69979;53.682;-2.690;2023-07-02T01:59:54;100503.15;;;10.44;53.58
80620;BME280;69979;53.682;-2.690;2023-07-02T02:02:20;100505.04;;;10.10;52.35
80620;BME280;69979;53.682;-2.690;2023-07-02T02:04:45;100502.48;;;10.37;52.46
80620;BME280;69979;53.682;-2.690;2023-07-02T02:07:11;100498.48;;;10.12;53.31
80620;BME280;69979;53.682;-2.690;2023-07-02T02:09:36;100494.69;;;10.89;51.74
80620;BME280;69979;53.682;-2.690;2023-07-02T02:12:02;100498.63;;;11.51;50.07
80620;BME280;69979;53.682;-2.690;2023-07-02T02:14:27;100495.37;;;11.01;50.92
80620;BME280;69979;53.682;-2.690;2023-07-02T02:16:52;100494.83;;;11.28;50.67
80620;BME280;69979;53.682;-2.690;2023-07-02T02:19:18;100490.96;;;11.31;50.33
80620;BME280;69979;53.682;-2.690;2023-07-02T02:21:43;100495.64;;;10.65;52.15
80620;BME280;69979;53.682;-2.690;2023-07-02T02:24:08;100502.02;;;10.64;52.80
80620;BME280;69979;53.682;-2.690;2023-07-02T02:26:35;100498.14;;;10.85;53.28
80620;BME280;69979;53.682;-2.690;2023-07-02T02:29:00;100500.11;;;11.12;52.74
80620;BME280;69979;53.682;-2.690;2023-07-02T02:31:25;100498.10;;;10.39;55.64
80620;BME280;69979;53.682;-2.690;2023-07-02T02:33:51;100498.72;;;11.23;53.38
80620;BME280;69979;53.682;-2.690;2023-07-02T02:36:16;100496.02;;;10.49;55.37
80620;BME280;69979;53.682;-2.690;2023-07-02T02:38:42;100493.46;;;10.58;56.16
80620;BME280;69979;53.682;-2.690;2023-07-02T02:41:07;100494.75;;;10.42;55.52
80620;BME280;69979;53.682;-2.690;2023-07-02T02:43:33;100497.93;;;9.55;59.16
80620;BME280;69979;53.682;-2.690;2023-07-02T02:45:58;100500.49;;;9.35;60.98
80620;BME280;69979;53.682;-2.690;2023-07-02T02:48:24;100494.04;;;10.14;58.63
80620;BME280;69979;53.682;-2.690;2023-07-02T02:50:50;100513.83;;;9.75;58.83
80620;BME280;69979;53.682;-2.690;2023-07-02T02:53:15;100495.11;;;9.16;60.77
80620;BME280;69979;53.682;-2.690;2023-07-02T02:55:40;100495.77;;;9.32;60.60
80620;BME280;69979;53.682;-2.690;2023-07-02T02:58:05;100504.65;;;9.33;60.81
80620;BME280;69979;53.682;-2.690;2023-07-02T03:00:31;100500.72;;;9.68;60.07
80620;BME280;69979;53.682;-2.690;2023-07-02T03:02:57;100505.66;;;9.12;60.17
80620;BME280;69979;53.682;-2.690;2023-07-02T03:05:22;100502.68;;;9.25;60.59
80620;BME280;69979;53.682;-2.690;2023-07-02T03:07:49;100504.01;;;9.83;58.11
80620;BME280;69979;53.682;-2.690;2023-07-02T03:10:13;100505.04;;;9.78;57.88
80620;BME280;69979;53.682;-2.690;2023-07-02T03:12:39;100505.85;;;9.17;59.80
80620;BME280;69979;53.682;-2.690;2023-07-02T03:15:05;100510.68;;;9.88;57.22
80620;BME280;69979;53.682;-2.690;2023-07-02T03:17:29;100507.16;;;9.39;59.54
80620;BME280;69979;53.682;-2.690;2023-07-02T03:19:55;100508.34;;;8.77;60.36
80620;BME280;69979;53.682;-2.690;2023-07-02T03:22:21;100506.03;;;9.73;57.82
80620;BME280;69979;53.682;-2.690;2023-07-02T03:24:46;100505.61;;;10.14;57.68
80620;BME280;69979;53.682;-2.690;2023-07-02T03:27:12;100506.00;;;10.05;57.47
80620;BME280;69979;53.682;-2.690;2023-07-02T03:29:37;100511.28;;;10.09;56.86
80620;BME280;69979;53.682;-2.690;2023-07-02T03:32:03;100506.41;;;9.50;58.89
80620;BME280;69979;53.682;-2.690;2023-07-02T03:34:28;100512.72;;;9.41;58.61
80620;BME280;69979;53.682;-2.690;2023-07-02T03:36:54;100504.97;;;9.44;60.08
80620;BME280;69979;53.682;-2.690;2023-07-02T03:39:19;100514.16;;;9.08;60.55
80620;BME280;69979;53.682;-2.690;2023-07-02T03:41:44;100509.15;;;9.32;60.58
80620;BME280;69979;53.682;-2.690;2023-07-02T03:44:10;100513.06;;;9.21;59.26
80620;BME280;69979;53.682;-2.690;2023-07-02T03:46:36;100512.82;;;10.20;57.89
80620;BME280;69979;53.682;-2.690;2023-07-02T03:49:01;100523.72;;;9.78;58.38
80620;BME280;69979;53.682;-2.690;2023-07-02T03:51:27;100521.26;;;9.54;59.19
80620;BME280;69979;53.682;-2.690;2023-07-02T03:53:52;100523.73;;;9.80;58.81
80620;BME280;69979;53.682;-2.690;2023-07-02T03:56:18;100522.17;;;9.29;59.59
80620;BME280;69979;53.682;-2.690;2023-07-02T03:58:43;100523.14;;;9.62;59.10
80620;BME280;69979;53.682;-2.690;2023-07-02T04:01:08;100523.02;;;9.04;60.05
80620;BME280;69979;53.682;-2.690;2023-07-02T04:03:34;100518.17;;;9.35;59.35
80620;BME280;69979;53.682;-2.690;2023-07-02T04:06:00;100520.26;;;10.18;57.48
80620;BME280;69979;53.682;-2.690;2023-07-02T04:08:25;100524.29;;;9.17;59.95
80620;BME280;69979;53.682;-2.690;2023-07-02T04:10:51;100511.33;;;9.13;60.11
80620;BME280;69979;53.682;-2.690;2023-07-02T04:13:16;100512.65;;;9.46;59.49
80620;BME280;69979;53.682;-2.690;2023-07-02T04:15:42;100512.32;;;9.68;58.92
80620;BME280;69979;53.682;-2.690;2023-07-02T04:18:07;100510.39;;;9.76;58.32
80620;BME280;69979;53.682;-2.690;2023-07-02T04:20:33;100509.42;;;10.65;56.09
80620;BME280;69979;53.682;-2.690;2023-07-02T04:22:58;100509.95;;;10.10;57.35
80620;BME280;69979;53.682;-2.690;2023-07-02T04:25:24;100506.36;;;10.06;57.65
80620;BME280;69979;53.682;-2.690;2023-07-02T04:27:49;100501.78;;;10.15;57.60
80620;BME280;69979;53.682;-2.690;2023-07-02T04:30:14;100499.44;;;10.14;56.88
80620;BME280;69979;53.682;-2.690;2023-07-02T04:32:40;100505.57;;;9.41;59.29
80620;BME280;69979;53.682;-2.690;2023-07-02T04:35:06;100503.92;;;9.75;59.32
80620;BME280;69979;53.682;-2.690;2023-07-02T04:37:31;100500.72;;;9.97;58.26
80620;BME280;69979;53.682;-2.690;2023-07-02T04:39:56;100506.43;;;10.04;57.79
80620;BME280;69979;53.682;-2.690;2023-07-02T04:42:22;100501.53;;;9.52;58.98
80620;BME280;69979;53.682;-2.690;2023-07-02T04:44:47;100506.70;;;10.33;56.88
80620;BME280;69979;53.682;-2.690;2023-07-02T04:47:13;100515.74;;;8.92;60.20
80620;BME280;69979;53.682;-2.690;2023-07-02T04:49:39;100503.17;;;9.30;60.73
80620;BME280;69979;53.682;-2.690;2023-07-02T04:52:04;100510.44;;;9.44;58.90
80620;BME280;69979;53.682;-2.690;2023-07-02T04:54:29;100506.09;;;9.30;59.90
80620;BME280;69979;53.682;-2.690;2023-07-02T04:56:55;100505.40;;;10.30;57.48
80620;BME280;69979;53.682;-2.690;2023-07-02T04:59:21;100508.75;;;10.33;57.52
80620;BME280;69979;53.682;-2.690;2023-07-02T05:01:46;100504.46;;;9.85;59.13
80620;BME280;69979;53.682;-2.690;2023-07-02T05:04:11;100500.31;;;9.30;60.39
80620;BME280;69979;53.682;-2.690;2023-07-02T05:06:36;100505.23;;;9.76;59.92
80620;BME280;69979;53.682;-2.690;2023-07-02T05:09:02;100512.68;;;9.92;58.93
80620;BME280;69979;53.682;-2.690;2023-07-02T05:11:27;100510.32;;;9.88;59.08
80620;BME280;69979;53.682;-2.690;2023-07-02T05:13:52;100508.19;;;9.66;58.70
80620;BME280;69979;53.682;-2.690;2023-07-02T05:16:18;100519.05;;;10.18;58.61
80620;BME280;69979;53.682;-2.690;2023-07-02T05:18:43;100517.34;;;9.49;59.69
80620;BME280;69979;53.682;-2.690;2023-07-02T05:21:09;100514.60;;;9.57;58.57
80620;BME280;69979;53.682;-2.690;2023-07-02T05:23:35;100521.29;;;9.50;58.46
80620;BME280;69979;53.682;-2.690;2023-07-02T05:26:01;100517.49;;;10.39;56.03
80620;BME280;69979;53.682;-2.690;2023-07-02T05:28:26;100514.97;;;9.96;57.36
80620;BME280;69979;53.682;-2.690;2023-07-02T05:30:51;100515.68;;;10.03;57.44
80620;BME280;69979;53.682;-2.690;2023-07-02T05:33:17;100521.30;;;10.79;55.34
80620;BME280;69979;53.682;-2.690;2023-07-02T05:35:42;100521.43;;;10.55;55.07
80620;BME280;69979;53.682;-2.690;2023-07-02T05:38:08;100524.12;;;10.39;56.01
80620;BME280;69979;53.682;-2.690;2023-07-02T05:40:33;100522.91;;;10.00;56.58
80620;BME280;69979;53.682;-2.690;2023-07-02T05:42:58;100522.22;;;10.00;56.28
80620;BME280;69979;53.682;-2.690;2023-07-02T05:45:24;100523.30;;;10.71;54.11
80620;BME280;69979;53.682;-2.690;2023-07-02T05:47:49;100520.31;;;10.19;55.75
80620;BME280;69979;53.682;-2.690;2023-07-02T05:50:15;100521.69;;;10.13;56.41
80620;BME280;69979;53.682;-2.690;2023-07-02T05:52:40;100519.69;;;10.14;57.25
80620;BME280;69979;53.682;-2.690;2023-07-02T05:55:08;100516.13;;;10.15;57.01
80620;BME280;69979;53.682;-2.690;2023-07-02T05:57:31;100517.20;;;10.28;56.50
80620;BME280;69979;53.682;-2.690;2023-07-02T05:59:57;100514.45;;;10.15;56.97
80620;BME280;69979;53.682;-2.690;2023-07-02T06:02:22;100519.90;;;10.20;57.19
80620;BME280;69979;53.682;-2.690;2023-07-02T06:04:47;100516.54;;;10.30;56.53
80620;BME280;69979;53.682;-2.690;2023-07-02T06:07:13;100522.35;;;10.16;56.82
80620;BME280;69979;53.682;-2.690;2023-07-02T06:09:38;100527.10;;;10.39;57.11
80620;BME280;69979;53.682;-2.690;2023-07-02T06:12:04;100521.35;;;10.62;56.88
80620;BME280;69979;53.682;-2.690;2023-07-02T06:14:29;100523.68;;;9.91;58.38
80620;BME280;69979;53.682;-2.690;2023-07-02T06:16:55;100528.30;;;9.58;59.28
80620;BME280;69979;53.682;-2.690;2023-07-02T06:19:20;100528.66;;;10.03;57.71
80620;BME280;69979;53.682;-2.690;2023-07-02T06:21:46;100532.47;;;10.03;57.60
80620;BME280;69979;53.682;-2.690;2023-07-02T06:24:12;100525.74;;;10.26;57.00
80620;BME280;69979;53.682;-2.690;2023-07-02T06:26:37;100525.92;;;10.28;57.13
80620;BME280;69979;53.682;-2.690;2023-07-02T06:29:03;100521.37;;;10.48;56.96
80620;BME280;69979;53.682;-2.690;2023-07-02T06:31:28;100521.79;;;11.20;53.91
80620;BME280;69979;53.682;-2.690;2023-07-02T06:33:54;100524.28;;;10.05;57.70
80620;BME280;69979;53.682;-2.690;2023-07-02T06:36:19;100523.80;;;10.01;58.83
80620;BME280;69979;53.682;-2.690;2023-07-02T06:38:45;100525.25;;;10.33;57.82
80620;BME280;69979;53.682;-2.690;2023-07-02T06:41:10;100536.44;;;9.83;59.07
80620;BME280;69979;53.682;-2.690;2023-07-02T06:43:35;100524.75;;;9.83;60.26
80620;BME280;69979;53.682;-2.690;2023-07-02T06:46:01;100527.28;;;10.39;57.51
80620;BME280;69979;53.682;-2.690;2023-07-02T06:48:26;100538.95;;;9.97;58.08
80620;BME280;69979;53.682;-2.690;2023-07-02T06:50:52;100545.81;;;10.26;57.27
80620;BME280;69979;53.682;-2.690;2023-07-02T06:53:17;100536.84;;;10.41;57.00
80620;BME280;69979;53.682;-2.690;2023-07-02T06:55:43;100538.26;;;10.16;56.96
80620;BME280;69979;53.682;-2.690;2023-07-02T06:58:08;100539.28;;;10.39;55.28
80620;BME280;69979;53.682;-2.690;2023-07-02T07:00:34;100542.65;;;11.01;54.10
80620;BME280;69979;53.682;-2.690;2023-07-02T07:02:59;100539.79;;;11.02;53.61
80620;BME280;69979;53.682;-2.690;2023-07-02T07:05:25;100551.38;;;11.55;52.82
80620;BME280;69979;53.682;-2.690;2023-07-02T07:07:50;100540.79;;;10.11;55.42
80620;BME280;69979;53.682;-2.690;2023-07-02T07:10:16;100547.56;;;9.87;56.43
80620;BME280;69979;53.682;-2.690;2023-07-02T07:12:41;100550.61;;;10.03;56.37
80620;BME280;69979;53.682;-2.690;2023-07-02T07:15:07;100556.95;;;9.95;56.98
80620;BME280;69979;53.682;-2.690;2023-07-02T07:17:32;100564.80;;;10.89;54.63
80620;BME280;69979;53.682;-2.690;2023-07-02T07:19:58;100562.10;;;10.47;54.57
80620;BME280;69979;53.682;-2.690;2023-07-02T07:22:23;100555.24;;;10.44;54.92
80620;BME280;69979;53.682;-2.690;2023-07-02T07:24:49;100564.19;;;10.46;54.42
80620;BME280;69979;53.682;-2.690;2023-07-02T07:27:14;100561.07;;;10.62;53.76
80620;BME280;69979;53.682;-2.690;2023-07-02T07:29:40;100569.35;;;10.73;54.38
80620;BME280;69979;53.682;-2.690;2023-07-02T07:32:07;100558.17;;;10.34;55.01
80620;BME280;69979;53.682;-2.690;2023-07-02T07:34:31;100561.06;;;10.40;54.69
80620;BME280;69979;53.682;-2.690;2023-07-02T07:36:56;100562.11;;;10.72;53.22
80620;BME280;69979;53.682;-2.690;2023-07-02T07:39:22;100565.45;;;10.31;53.40
80620;BME280;69979;53.682;-2.690;2023-07-02T07:41:47;100559.98;;;9.99;54.61
80620;BME280;69979;53.682;-2.690;2023-07-02T07:44:13;100570.69;;;10.25;54.48
80620;BME280;69979;53.682;-2.690;2023-07-02T07:46:38;100561.05;;;10.46;54.46
80620;BME280;69979;53.682;-2.690;2023-07-02T07:49:03;100562.48;;;11.13;51.94
80620;BME280;69979;53.682;-2.690;2023-07-02T07:51:29;100564.17;;;11.13;51.78
80620;BME280;69979;53.682;-2.690;2023-07-02T07:53:54;100564.66;;;10.91;51.27
80620;BME280;69979;53.682;-2.690;2023-07-02T07:56:20;100560.85;;;11.18;49.96
80620;BME280;69979;53.682;-2.690;2023-07-02T07:58:46;100573.87;;;10.57;50.97
80620;BME280;69979;53.682;-2.690;2023-07-02T08:01:11;100570.01;;;11.01;51.02
80620;BME280;69979;53.682;-2.690;2023-07-02T08:03:37;100571.72;;;10.93;49.11
80620;BME280;69979;53.682;-2.690;2023-07-02T08:06:02;100567.23;;;10.62;51.59
80620;BME280;69979;53.682;-2.690;2023-07-02T08:08:27;100580.57;;;11.43;49.47
80620;BME280;69979;53.682;-2.690;2023-07-02T08:10:53;100564.58;;;11.15;49.26
80620;BME280;69979;53.682;-2.690;2023-07-02T08:13:18;100564.00;;;10.88;51.42
80620;BME280;69979;53.682;-2.690;2023-07-02T08:15:44;100567.16;;;11.12;50.91
80620;BME280;69979;53.682;-2.690;2023-07-02T08:18:10;100572.84;;;11.06;50.87
80620;BME280;69979;53.682;-2.690;2023-07-02T08:20:34;100561.34;;;10.98;51.73
80620;BME280;69979;53.682;-2.690;2023-07-02T08:23:00;100577.30;;;10.24;53.65
80620;BME280;69979;53.682;-2.690;2023-07-02T08:25:26;100579.07;;;10.55;53.57
80620;BME280;69979;53.682;-2.690;2023-07-02T08:27:51;100582.65;;;10.04;53.83
80620;BME280;69979;53.682;-2.690;2023-07-02T08:30:17;100575.67;;;11.24;48.93
80620;BME280;69979;53.682;-2.690;2023-07-02T08:32:42;100579.96;;;11.35;48.78
80620;BME280;69979;53.682;-2.690;2023-07-02T08:35:08;100581.57;;;11.18;50.12
80620;BME280;69979;53.682;-2.690;2023-07-02T08:37:33;100595.11;;;11.25;50.02
80620;BME280;69979;53.682;-2.690;2023-07-02T08:39:58;100591.48;;;10.77;53.87
80620;BME280;69979;53.682;-2.690;2023-07-02T08:42:24;100582.92;;;10.65;53.11
80620;BME280;69979;53.682;-2.690;2023-07-02T08:44:53;100584.29;;;11.05;53.47
80620;BME280;69979;53.682;-2.690;2023-07-02T08:47:15;100587.90;;;10.56;54.88
80620;BME280;69979;53.682;-2.690;2023-07-02T08:49:42;100589.12;;;10.74;53.87
80620;BME280;69979;53.682;-2.690;2023-07-02T08:52:06;100596.35;;;11.05;52.06
80620;BME280;69979;53.682;-2.690;2023-07-02T08:54:31;100590.79;;;10.95;52.34
80620;BME280;69979;53.682;-2.690;2023-07-02T08:56:57;100595.59;;;10.79;53.80
80620;BME280;69979;53.682;-2.690;2023-07-02T08:59:22;100588.33;;;11.20;52.52
80620;BME280;69979;53.682;-2.690;2023-07-02T09:01:49;100586.46;;;10.51;54.50
80620;BME280;69979;53.682;-2.690;2023-07-02T09:04:18;100589.66;;;11.10;53.23
80620;BME280;69979;53.682;-2.690;2023-07-02T09:06:39;100592.09;;;10.99;51.98
80620;BME280;69979;53.682;-2.690;2023-07-02T09:09:05;100592.67;;;11.04;53.45
80620;BME280;69979;53.682;-2.690;2023-07-02T09:11:30;100591.67;;;10.87;53.55
80620;BME280;69979;53.682;-2.690;2023-07-02T09:13:55;100586.42;;;11.58;52.67
80620;BME280;69979;53.682;-2.690;2023-07-02T09:16:22;100579.39;;;10.96;54.91
80620;BME280;69979;53.682;-2.690;2023-07-02T09:18:58;100586.70;;;10.89;55.00
80620;BME280;69979;53.682;-2.690;2023-07-02T09:21:11;100584.38;;;11.24;54.72
80620;BME280;69979;53.682;-2.690;2023-07-02T09:23:37;100579.95;;;12.04;52.81
80620;BME280;69979;53.682;-2.690;2023-07-02T09:26:02;100583.63;;;10.89;56.38
80620;BME280;69979;53.682;-2.690;2023-07-02T09:28:28;100586.91;;;10.60;57.17
80620;BME280;69979;53.682;-2.690;2023-07-02T09:30:54;100589.49;;;10.65;57.32
80620;BME280;69979;53.682;-2.690;2023-07-02T09:33:18;100588.34;;;10.81;56.02
80620;BME280;69979;53.682;-2.690;2023-07-02T09:35:44;100587.16;;;11.36;55.22
80620;BME280;69979;53.682;-2.690;2023-07-02T09:38:10;100586.47;;;10.50;54.94
80620;BME280;69979;53.682;-2.690;2023-07-02T09:40:36;100585.47;;;10.36;56.43
80620;BME280;69979;53.682;-2.690;2023-07-02T09:43:00;100586.12;;;10.85;55.44
80620;BME280;69979;53.682;-2.690;2023-07-02T09:45:26;100588.98;;;10.53;57.37
80620;BME280;69979;53.682;-2.690;2023-07-02T09:47:55;100584.09;;;11.06;55.47
80620;BME280;69979;53.682;-2.690;2023-07-02T09:50:18;100602.19;;;11.23;55.28
80620;BME280;69979;53.682;-2.690;2023-07-02T09:52:44;100587.40;;;10.22;57.98
80620;BME280;69979;53.682;-2.690;2023-07-02T09:55:09;100581.67;;;10.93;55.96
80620;BME280;69979;53.682;-2.690;2023-07-02T09:57:33;100599.65;;;10.47;56.44
80620;BME280;69979;53.682;-2.690;2023-07-02T09:59:59;100579.30;;;10.28;57.09
80620;BME280;69979;53.682;-2.690;2023-07-02T10:02:24;100577.83;;;11.04;54.72
80620;BME280;69979;53.682;-2.690;2023-07-02T10:04:50;100578.53;;;11.35;54.08
80620;BME280;69979;53.682;-2.690;2023-07-02T10:09:42;100576.27;;;11.11;54.79
80620;BME280;69979;53.682;-2.690;2023-07-02T10:12:16;100579.52;;;11.45;53.96
80620;BME280;69979;53.682;-2.690;2023-07-02T10:14:41;100571.43;;;11.32;53.01
80620;BME280;69979;53.682;-2.690;2023-07-02T10:16:56;100580.86;;;11.81;52.98
80620;BME280;69979;53.682;-2.690;2023-07-02T10:19:22;100592.85;;;10.69;54.99
80620;BME280;69979;53.682;-2.690;2023-07-02T10:24:13;100584.51;;;10.76;55.62
80620;BME280;69979;53.682;-2.690;2023-07-02T10:26:38;100578.73;;;11.03;55.37
80620;BME280;69979;53.682;-2.690;2023-07-02T10:29:04;100582.79;;;11.49;53.92
80620;BME280;69979;53.682;-2.690;2023-07-02T10:31:29;100584.90;;;11.11;53.69
80620;BME280;69979;53.682;-2.690;2023-07-02T10:33:55;100590.91;;;11.04;54.72
80620;BME280;69979;53.682;-2.690;2023-07-02T10:36:20;100580.57;;;11.60;53.19
80620;BME280;69979;53.682;-2.690;2023-07-02T10:38:45;100580.91;;;11.68;51.60
80620;BME280;69979;53.682;-2.690;2023-07-02T10:41:11;100583.75;;;11.10;52.20
80620;BME280;69979;53.682;-2.690;2023-07-02T10:43:36;100578.07;;;11.44;52.92
80620;BME280;69979;53.682;-2.690;2023-07-02T10:46:02;100586.66;;;11.16;52.35
80620;BME280;69979;53.682;-2.690;2023-07-02T10:48:27;100586.56;;;10.65;53.84
80620;BME280;69979;53.682;-2.690;2023-07-02T10:50:53;100577.58;;;10.62;54.84
80620;BME280;69979;53.682;-2.690;2023-07-02T10:53:19;100585.92;;;10.52;55.53
80620;BME280;69979;53.682;-2.690;2023-07-02T10:55:44;100593.55;;;10.55;54.93
80620;BME280;69979;53.682;-2.690;2023-07-02T10:58:10;100585.85;;;10.57;54.63
80620;BME280;69979;53.682;-2.690;2023-07-02T11:00:44;100592.79;;;10.56;55.46
80620;BME280;69979;53.682;-2.690;2023-07-02T11:03:00;100585.09;;;11.32;53.67
80620;BME280;69979;53.682;-2.690;2023-07-02T11:05:25;100588.01;;;11.98;52.32
80620;BME280;69979;53.682;-2.690;2023-07-02T11:07:50;100591.83;;;11.71;51.96
80620;BME280;69979;53.682;-2.690;2023-07-02T11:10:19;100594.77;;;11.75;51.73
80620;BME280;69979;53.682;-2.690;2023-07-02T11:12:41;100585.89;;;11.25;52.83
80620;BME280;69979;53.682;-2.690;2023-07-02T11:15:08;100591.57;;;11.83;51.04
80620;BME280;69979;53.682;-2.690;2023-07-02T11:17:32;100585.80;;;12.13;49.21
80620;BME280;69979;53.682;-2.690;2023-07-02T11:19:58;100590.72;;;11.39;50.09
80620;BME280;69979;53.682;-2.690;2023-07-02T11:22:31;100575.38;;;11.57;50.18
80620;BME280;69979;53.682;-2.690;2023-07-02T11:24:49;100579.23;;;11.76;51.10
80620;BME280;69979;53.682;-2.690;2023-07-02T11:27:21;100579.22;;;12.30;50.30
80620;BME280;69979;53.682;-2.690;2023-07-02T11:29:40;100584.76;;;12.31;51.76
80620;BME280;69979;53.682;-2.690;2023-07-02T11:32:06;100576.76;;;11.95;52.18
80620;BME280;69979;53.682;-2.690;2023-07-02T11:34:31;100583.90;;;11.55;50.34
80620;BME280;69979;53.682;-2.690;2023-07-02T11:36:56;100566.17;;;11.40;50.35
80620;BME280;69979;53.682;-2.690;2023-07-02T11:39:21;100566.60;;;12.14;51.24
80620;BME280;69979;53.682;-2.690;2023-07-02T11:41:48;100572.57;;;12.04;50.79
80620;BME280;69979;53.682;-2.690;2023-07-02T11:44:12;100577.88;;;12.56;49.62
80620;BME280;69979;53.682;-2.690;2023-07-02T11:46:38;100581.26;;;12.32;49.02
80620;BME280;69979;53.682;-2.690;2023-07-02T11:49:04;100586.63;;;11.65;50.08
80620;BME280;69979;53.682;-2.690;2023-07-02T11:51:28;100592.24;;;11.31;50.71
80620;BME280;69979;53.682;-2.690;2023-07-02T11:53:54;100582.40;;;10.77;52.89
80620;BME280;69979;53.682;-2.690;2023-07-02T11:56:20;100590.07;;;11.41;51.50
80620;BME280;69979;53.682;-2.690;2023-07-02T11:58:45;100586.66;;;11.68;52.56
80620;BME280;69979;53.682;-2.690;2023-07-02T12:01:10;100575.90;;;11.72;51.38
80620;BME280;69979;53.682;-2.690;2023-07-02T12:03:36;100596.25;;;12.25;49.11
80620;BME280;69979;53.682;-2.690;2023-07-02T12:06:01;100583.51;;;11.49;52.38
80620;BME280;69979;53.682;-2.690;2023-07-02T12:08:27;100582.51;;;11.31;53.05
80620;BME280;69979;53.682;-2.690;2023-07-02T12:10:52;100588.97;;;11.54;52.59
80620;BME280;69979;53.682;-2.690;2023-07-02T12:13:18;100592.83;;;11.42;51.68
80620;BME280;69979;53.682;-2.690;2023-07-02T12:15:43;100586.61;;;11.63;50.36
80620;BME280;69979;53.682;-2.690;2023-07-02T12:18:09;100585.05;;;11.61;46.99
80620;BME280;69979;53.682;-2.690;2023-07-02T12:20:34;100577.34;;;12.08;48.07
80620;BME280;69979;53.682;-2.690;2023-07-02T12:23:00;100569.01;;;12.32;43.76
80620;BME280;69979;53.682;-2.690;2023-07-02T12:25:25;100584.74;;;11.83;44.74
80620;BME280;69979;53.682;-2.690;2023-07-02T12:27:51;100576.40;;;11.94;45.94
80620;BME280;69979;53.682;-2.690;2023-07-02T12:30:16;100568.70;;;12.25;44.85
80620;BME280;69979;53.682;-2.690;2023-07-02T12:32:41;100581.38;;;13.01;44.10
80620;BME280;69979;53.682;-2.690;2023-07-02T12:35:08;100587.01;;;12.17;46.43
80620;BME280;69979;53.682;-2.690;2023-07-02T12:37:33;100583.68;;;13.00;45.69